createdAt,value
2023-05-14T00:01:03.434Z,14.80
2023-05-14T00:03:30.016Z,14.80
2023-05-14T00:05:56.944Z,14.70
2023-05-14T00:08:23.808Z,14.70
2023-05-14T00:10:50.287Z,14.60
2023-05-14T00:13:17.186Z,14.60
2023-05-14T00:15:43.746Z,14.50
2023-05-14T00:18:10.586Z,14.50
2023-05-14T00:20:37.247Z,14.40
2023-05-14T00:23:03.754Z,14.30
2023-05-14T00:25:30.644Z,14.30
2023-05-14T00:27:57.148Z,14.20
2023-05-14T00:30:24.125Z,14.20
2023-05-14T00:32:51.074Z,14.10
2023-05-14T00:35:17.594Z,14.10
2023-05-14T00:37:44.398Z,14.00
2023-05-14T00:40:11.740Z,14.00
2023-05-14T00:42:39.315Z,13.90
2023-05-14T00:45:06.830Z,13.90
2023-05-14T00:47:34.037Z,13.90
2023-05-14T00:50:01.684Z,13.80
2023-05-14T00:52:28.126Z,13.80
2023-05-14T00:54:55.190Z,13.80
2023-05-14T00:57:21.684Z,13.70
2023-05-14T00:59:48.618Z,13.70
2023-05-14T01:02:15.076Z,13.70
2023-05-14T01:04:42.315Z,13.60
2023-05-14T01:07:23.030Z,13.60
2023-05-14T01:10:21.282Z,13.60
2023-05-14T01:13:01.955Z,13.50
2023-05-14T01:15:31.710Z,13.50
2023-05-14T01:18:02.628Z,13.40
2023-05-14T01:20:29.377Z,13.40
2023-05-14T01:22:55.874Z,13.30
2023-05-14T01:25:22.358Z,13.30
2023-05-14T01:27:57.546Z,13.30
2023-05-14T01:30:24.369Z,13.30
2023-05-14T01:32:54.485Z,13.20
2023-05-14T01:35:27.569Z,13.20
2023-05-14T01:37:57.669Z,13.20
2023-05-14T01:40:25.174Z,13.10
2023-05-14T01:42:53.505Z,13.00
2023-05-14T01:45:23.868Z,13.00
2023-05-14T01:47:51.758Z,13.00
2023-05-14T01:50:18.810Z,12.90
2023-05-14T01:52:45.542Z,12.90
2023-05-14T01:55:11.983Z,12.90
2023-05-14T01:57:38.789Z,12.90
2023-05-14T02:00:06.011Z,12.80
2023-05-14T02:02:32.473Z,12.80
2023-05-14T02:04:59.340Z,12.80
2023-05-14T02:07:25.805Z,12.70
2023-05-14T02:09:52.661Z,12.70
2023-05-14T02:12:19.114Z,12.70
2023-05-14T02:14:45.577Z,12.70
2023-05-14T02:17:12.420Z,12.60
2023-05-14T02:19:38.838Z,12.60
2023-05-14T02:22:05.688Z,12.60
2023-05-14T02:24:32.146Z,12.60
2023-05-14T02:26:58.981Z,12.50
2023-05-14T02:29:25.454Z,12.50
2023-05-14T02:31:52.366Z,12.50
2023-05-14T02:34:19.003Z,12.50
2023-05-14T02:36:45.991Z,12.40
2023-05-14T02:39:12.753Z,12.50
2023-05-14T02:41:39.620Z,12.40
2023-05-14T02:44:06.130Z,12.40
2023-05-14T02:46:33.321Z,12.40
2023-05-14T02:49:00.166Z,12.40
2023-05-14T02:51:26.964Z,12.40
2023-05-14T02:53:53.437Z,12.30
2023-05-14T02:56:20.249Z,12.30
2023-05-14T02:58:46.722Z,12.30
2023-05-14T03:01:13.873Z,12.30
2023-05-14T03:03:40.643Z,12.20
2023-05-14T03:06:08.074Z,12.20
2023-05-14T03:08:34.532Z,12.20
2023-05-14T03:11:01.309Z,12.10
2023-05-14T03:13:28.082Z,12.10
2023-05-14T03:15:54.565Z,12.10
2023-05-14T03:18:21.567Z,12.10
2023-05-14T03:20:48.038Z,12.00
2023-05-14T03:23:15.509Z,12.00
2023-05-14T03:25:42.314Z,12.00
2023-05-14T03:28:09.146Z,11.90
2023-05-14T03:30:35.867Z,11.90
2023-05-14T03:33:02.785Z,11.80
2023-05-14T03:35:29.665Z,11.80
2023-05-14T03:37:56.391Z,11.80
2023-05-14T03:40:22.990Z,11.80
2023-05-14T03:42:49.970Z,11.70
2023-05-14T03:45:16.462Z,11.70
2023-05-14T03:47:43.303Z,11.70
2023-05-14T03:50:09.966Z,11.70
2023-05-14T03:52:36.763Z,11.60
2023-05-14T03:55:03.814Z,11.60
2023-05-14T03:57:30.592Z,11.60
2023-05-14T03:59:57.075Z,11.60
2023-05-14T04:02:24.392Z,11.60
2023-05-14T04:04:50.899Z,11.60
2023-05-14T04:07:17.706Z,11.60
2023-05-14T04:09:44.160Z,11.60
2023-05-14T04:12:10.961Z,11.60
2023-05-14T04:14:37.432Z,11.60
2023-05-14T04:17:04.468Z,11.70
2023-05-14T04:19:30.896Z,11.70
2023-05-14T04:21:57.337Z,11.80
2023-05-14T04:24:24.289Z,11.80
2023-05-14T04:26:50.744Z,11.80
2023-05-14T04:29:17.554Z,11.90
2023-05-14T04:31:44.570Z,11.90
2023-05-14T04:34:11.450Z,12.00
2023-05-14T04:36:37.894Z,12.00
2023-05-14T04:39:04.734Z,12.10
2023-05-14T04:41:31.537Z,12.10
2023-05-14T04:44:00.272Z,12.10
2023-05-14T04:46:27.181Z,12.20
2023-05-14T04:48:53.894Z,12.20
2023-05-14T04:51:20.676Z,12.20
2023-05-14T04:53:47.183Z,12.30
2023-05-14T04:56:14.096Z,12.30
2023-05-14T04:58:40.559Z,12.40
2023-05-14T05:01:07.037Z,12.50
2023-05-14T05:03:33.523Z,12.60
2023-05-14T05:06:00.477Z,12.70
2023-05-14T05:08:27.251Z,13.20
2023-05-14T05:10:53.694Z,14.10
2023-05-14T05:13:20.491Z,15.10
2023-05-14T05:15:47.549Z,16.20
2023-05-14T05:18:14.116Z,17.30
2023-05-14T05:20:40.928Z,18.20
2023-05-14T05:23:07.418Z,19.20
2023-05-14T05:25:34.376Z,20.10
2023-05-14T05:28:00.842Z,21.00
2023-05-14T05:30:27.687Z,21.80
2023-05-14T05:32:54.235Z,22.50
2023-05-14T05:35:21.136Z,23.20
2023-05-14T05:37:47.577Z,23.70
2023-05-14T05:40:14.531Z,24.20
2023-05-14T05:42:41.634Z,24.70
2023-05-14T05:45:09.227Z,25.20
2023-05-14T05:47:35.671Z,25.60
2023-05-14T05:50:02.209Z,25.90
2023-05-14T05:52:29.114Z,26.20
2023-05-14T05:54:55.572Z,26.50
2023-05-14T05:57:23.622Z,26.60
2023-05-14T05:59:51.555Z,26.80
2023-05-14T06:02:19.187Z,27.10
2023-05-14T06:04:45.787Z,27.20
2023-05-14T06:07:12.661Z,27.40
2023-05-14T06:09:39.504Z,27.50
2023-05-14T06:12:06.458Z,27.60
2023-05-14T06:14:33.372Z,27.70
2023-05-14T06:16:59.929Z,27.50
2023-05-14T06:19:26.894Z,27.40
2023-05-14T06:21:53.377Z,27.30
2023-05-14T06:24:20.265Z,27.50
2023-05-14T06:26:48.797Z,27.60
2023-05-14T06:29:15.589Z,27.60
2023-05-14T06:31:42.634Z,28.10
2023-05-14T06:34:09.097Z,28.30
2023-05-14T06:36:35.922Z,28.30
2023-05-14T06:39:02.399Z,28.30
2023-05-14T06:41:29.264Z,27.80
2023-05-14T06:43:55.692Z,27.00
2023-05-14T06:46:22.481Z,26.20
2023-05-14T06:48:49.097Z,25.30
2023-05-14T06:51:16.106Z,24.30
2023-05-14T06:53:42.594Z,23.60
2023-05-14T06:56:09.363Z,23.00
2023-05-14T06:58:35.833Z,22.80
2023-05-14T07:01:02.730Z,23.10
2023-05-14T07:03:29.537Z,23.60
2023-05-14T07:05:56.276Z,23.70
2023-05-14T07:08:23.057Z,23.70
2023-05-14T07:10:49.503Z,23.70
2023-05-14T07:13:16.312Z,23.70
2023-05-14T07:15:42.738Z,24.40
2023-05-14T07:18:09.496Z,25.30
2023-05-14T07:20:36.021Z,26.40
2023-05-14T07:23:02.487Z,27.10
2023-05-14T07:25:28.933Z,27.70
2023-05-14T07:27:55.823Z,28.40
2023-05-14T07:30:22.835Z,28.60
2023-05-14T07:32:49.991Z,29.10
2023-05-14T07:35:16.494Z,29.40
2023-05-14T07:37:43.335Z,29.90
2023-05-14T07:40:10.030Z,30.30
2023-05-14T07:42:37.539Z,30.70
2023-05-14T07:45:05.547Z,30.60
2023-05-14T07:47:32.996Z,30.60
2023-05-14T07:49:59.796Z,30.90
2023-05-14T07:52:26.606Z,30.90
2023-05-14T07:54:53.566Z,31.00
2023-05-14T07:57:20.283Z,30.50
2023-05-14T07:59:48.151Z,30.70
2023-05-14T08:02:15.061Z,30.90
2023-05-14T08:04:41.833Z,31.00
2023-05-14T08:07:09.149Z,31.40
2023-05-14T08:09:35.794Z,31.50
2023-05-14T08:12:02.360Z,31.90
2023-05-14T08:14:28.808Z,32.30
2023-05-14T08:16:55.273Z,32.70
2023-05-14T08:19:22.360Z,32.70
2023-05-14T08:21:49.213Z,33.30
2023-05-14T08:24:15.701Z,33.50
2023-05-14T08:26:42.166Z,33.60
2023-05-14T08:29:10.632Z,33.00
2023-05-14T08:31:37.732Z,32.90
2023-05-14T08:34:04.180Z,32.80
2023-05-14T08:36:30.673Z,32.80
2023-05-14T08:38:57.498Z,32.70
2023-05-14T08:41:24.435Z,32.30
2023-05-14T08:44:12.464Z,31.60
2023-05-14T08:46:40.089Z,31.20
2023-05-14T08:49:38.979Z,31.50
2023-05-14T08:52:06.018Z,32.10
2023-05-14T08:54:32.555Z,32.50
2023-05-14T08:56:59.292Z,32.40
2023-05-14T08:59:26.176Z,32.50
2023-05-14T09:01:54.427Z,32.70
2023-05-14T09:04:23.388Z,32.80
2023-05-14T09:06:52.254Z,33.30
2023-05-14T09:09:18.791Z,33.80
2023-05-14T09:11:50.242Z,34.30
2023-05-14T09:14:17.425Z,34.90
2023-05-14T09:16:49.410Z,34.80
2023-05-14T09:19:16.401Z,33.90
2023-05-14T09:21:45.209Z,33.10
2023-05-14T09:24:22.391Z,32.10
2023-05-14T09:26:58.244Z,31.20
2023-05-14T09:29:25.302Z,30.80
2023-05-14T09:31:52.349Z,30.80
2023-05-14T09:34:29.896Z,31.00
2023-05-14T09:37:01.646Z,31.10
2023-05-14T09:39:29.604Z,31.20
2023-05-14T09:41:56.555Z,31.70
2023-05-14T09:44:24.404Z,32.00
2023-05-14T09:46:51.663Z,32.20
2023-05-14T09:49:18.656Z,32.00
2023-05-14T09:51:45.187Z,32.40
2023-05-14T09:54:11.782Z,32.70
2023-05-14T09:56:38.555Z,32.50
2023-05-14T09:59:05.261Z,32.10
2023-05-14T10:01:33.174Z,32.20
2023-05-14T10:04:00.019Z,32.50
2023-05-14T10:06:30.558Z,33.10
2023-05-14T10:09:00.557Z,33.30
2023-05-14T10:11:32.505Z,33.10
2023-05-14T10:14:07.832Z,32.90
2023-05-14T10:16:37.414Z,32.80
2023-05-14T10:19:11.651Z,32.20
2023-05-14T10:21:40.533Z,32.20
2023-05-14T10:24:08.130Z,32.30
2023-05-14T10:26:37.778Z,32.10
2023-05-14T10:29:04.680Z,32.30
2023-05-14T10:31:54.256Z,32.20
2023-05-14T10:34:41.601Z,32.00
2023-05-14T10:37:14.038Z,31.70
2023-05-14T10:39:45.764Z,31.90
2023-05-14T10:42:16.155Z,32.00
2023-05-14T10:44:55.271Z,31.90
2023-05-14T10:47:22.305Z,31.70
2023-05-14T10:49:48.959Z,31.70
2023-05-14T10:52:19.450Z,31.70
2023-05-14T10:54:49.514Z,31.60
2023-05-14T10:57:18.433Z,31.30
2023-05-14T10:59:46.309Z,31.20
2023-05-14T11:02:22.625Z,30.70
2023-05-14T11:04:58.409Z,30.80
2023-05-14T11:07:30.381Z,30.30
2023-05-14T11:10:05.935Z,30.10
2023-05-14T11:12:37.345Z,29.80
2023-05-14T11:15:08.806Z,29.40
2023-05-14T11:17:36.671Z,29.20
2023-05-14T11:20:03.773Z,29.10
2023-05-14T11:22:30.239Z,29.10
2023-05-14T11:24:56.863Z,29.10
2023-05-14T11:27:23.516Z,28.70
2023-05-14T11:29:50.962Z,28.40
2023-05-14T11:32:18.343Z,27.90
2023-05-14T11:34:46.112Z,27.60
2023-05-14T11:37:14.479Z,27.30
2023-05-14T11:39:47.862Z,27.20
2023-05-14T11:42:14.665Z,27.00
2023-05-14T11:44:41.859Z,27.00
2023-05-14T11:47:08.363Z,26.90
2023-05-14T11:49:34.894Z,26.60
2023-05-14T11:52:02.897Z,26.40
2023-05-14T11:54:30.639Z,26.30
2023-05-14T11:56:58.089Z,26.10
2023-05-14T11:59:29.047Z,26.10
2023-05-14T12:01:55.819Z,26.00
2023-05-14T12:04:22.561Z,25.90
2023-05-14T12:06:50.667Z,25.80
2023-05-14T12:09:18.258Z,25.80
2023-05-14T12:11:45.855Z,25.70
2023-05-14T12:14:15.872Z,25.70
2023-05-14T12:16:44.596Z,25.70
2023-05-14T12:19:13.800Z,25.60
2023-05-14T12:21:42.602Z,25.70
2023-05-14T12:24:17.901Z,25.70
2023-05-14T12:26:46.012Z,25.90
2023-05-14T12:29:14.648Z,25.90
2023-05-14T12:31:50.158Z,26.00
2023-05-14T12:34:17.187Z,26.10
2023-05-14T12:36:43.797Z,26.10
2023-05-14T12:39:12.397Z,26.10
2023-05-14T12:41:38.854Z,26.10
2023-05-14T12:44:05.517Z,26.20
2023-05-14T12:46:33.443Z,26.20
2023-05-14T12:48:59.981Z,26.20
2023-05-14T12:51:26.739Z,26.10
2023-05-14T12:53:53.176Z,26.00
2023-05-14T12:56:20.039Z,26.10
2023-05-14T12:58:47.023Z,26.20
2023-05-14T13:01:13.876Z,26.10
2023-05-14T13:03:40.383Z,26.10
2023-05-14T13:06:07.659Z,26.00
2023-05-14T13:08:34.682Z,26.10
2023-05-14T13:11:01.163Z,26.20
2023-05-14T13:13:28.050Z,26.40
2023-05-14T13:15:54.556Z,26.40
2023-05-14T13:18:21.013Z,26.50
2023-05-14T13:20:48.384Z,26.30
2023-05-14T13:23:15.104Z,26.10
2023-05-14T13:25:41.556Z,25.90
2023-05-14T13:28:08.713Z,25.80
2023-05-14T13:30:35.193Z,25.70
2023-05-14T13:33:01.786Z,25.70
2023-05-14T13:35:28.349Z,25.60
2023-05-14T13:37:55.210Z,25.60
2023-05-14T13:40:21.681Z,25.60
2023-05-14T13:42:48.208Z,25.50
2023-05-14T13:45:14.681Z,25.40
2023-05-14T13:47:41.465Z,25.40
2023-05-14T13:50:08.586Z,25.40
2023-05-14T13:52:35.038Z,25.50
2023-05-14T13:55:01.546Z,25.50
2023-05-14T13:57:28.381Z,25.50
2023-05-14T13:59:54.830Z,25.40
2023-05-14T14:02:21.684Z,25.30
2023-05-14T14:04:48.237Z,25.40
2023-05-14T14:07:15.081Z,25.40
2023-05-14T14:09:41.576Z,25.30
2023-05-14T14:12:08.374Z,25.20
2023-05-14T14:14:35.243Z,25.10
2023-05-14T14:17:01.726Z,25.10
2023-05-14T14:19:28.173Z,25.10
2023-05-14T14:21:55.085Z,25.10
2023-05-14T14:24:21.570Z,25.00
2023-05-14T14:26:48.022Z,25.00
2023-05-14T14:29:14.681Z,25.00
2023-05-14T14:31:41.554Z,25.00
2023-05-14T14:34:08.436Z,25.00
2023-05-14T14:36:34.893Z,25.10
2023-05-14T14:39:01.659Z,25.00
2023-05-14T14:41:28.258Z,24.90
2023-05-14T14:43:54.715Z,25.00
2023-05-14T14:46:21.211Z,25.10
2023-05-14T14:48:48.076Z,25.00
2023-05-14T14:51:14.568Z,25.00
2023-05-14T14:53:41.013Z,25.00
2023-05-14T14:56:07.525Z,25.00
2023-05-14T14:58:34.013Z,24.90
2023-05-14T15:01:01.254Z,24.90
2023-05-14T15:03:28.096Z,24.70
2023-05-14T15:05:54.834Z,24.60
2023-05-14T15:08:25.494Z,24.50
2023-05-14T15:10:52.397Z,24.40
2023-05-14T15:13:19.083Z,24.40
2023-05-14T15:15:45.556Z,24.30
2023-05-14T15:18:12.031Z,24.30
2023-05-14T15:20:38.972Z,24.30
2023-05-14T15:23:05.930Z,24.30
2023-05-14T15:25:32.650Z,24.30
2023-05-14T15:27:59.115Z,24.30
2023-05-14T15:30:25.605Z,24.20
2023-05-14T15:32:52.160Z,24.10
2023-05-14T15:35:19.178Z,24.00
2023-05-14T15:37:46.048Z,24.00
2023-05-14T15:40:13.084Z,24.00
2023-05-14T15:42:41.609Z,23.90
2023-05-14T15:45:09.736Z,24.00
2023-05-14T15:47:36.410Z,23.90
2023-05-14T15:50:03.150Z,23.80
2023-05-14T15:52:29.782Z,23.70
2023-05-14T15:54:56.247Z,23.70
2023-05-14T15:57:23.135Z,23.70
2023-05-14T15:59:49.643Z,23.70
2023-05-14T16:02:16.122Z,23.70
2023-05-14T16:04:42.782Z,23.70
2023-05-14T16:07:09.923Z,23.70
2023-05-14T16:09:37.346Z,23.70
2023-05-14T16:12:05.131Z,23.70
2023-05-14T16:14:33.709Z,23.60
2023-05-14T16:17:00.481Z,23.60
2023-05-14T16:19:27.042Z,23.50
2023-05-14T16:21:53.663Z,23.40
2023-05-14T16:24:20.146Z,23.40
2023-05-14T16:26:46.768Z,23.40
2023-05-14T16:29:13.633Z,23.30
2023-05-14T16:31:40.103Z,23.30
2023-05-14T16:34:06.559Z,23.30
2023-05-14T16:36:33.048Z,23.30
2023-05-14T16:39:07.286Z,23.20
2023-05-14T16:41:35.294Z,23.10
2023-05-14T16:44:01.938Z,23.00
2023-05-14T16:46:28.935Z,22.90
2023-05-14T16:48:55.521Z,22.90
2023-05-14T16:51:22.110Z,22.90
2023-05-14T16:53:48.942Z,22.70
2023-05-14T16:56:15.456Z,22.70
2023-05-14T16:58:42.095Z,22.60
2023-05-14T17:01:09.783Z,22.60
2023-05-14T17:03:36.830Z,22.60
2023-05-14T17:06:03.579Z,22.50
2023-05-14T17:08:30.113Z,22.40
2023-05-14T17:10:56.710Z,22.30
2023-05-14T17:13:23.245Z,22.30
2023-05-14T17:15:50.104Z,22.30
2023-05-14T17:18:16.712Z,22.30
2023-05-14T17:20:43.214Z,22.30
2023-05-14T17:23:10.158Z,22.30
2023-05-14T17:25:36.605Z,22.20
2023-05-14T17:28:03.470Z,22.20
2023-05-14T17:30:29.900Z,22.10
2023-05-14T17:32:56.490Z,22.00
2023-05-14T17:35:23.500Z,21.90
2023-05-14T17:37:50.133Z,21.90
2023-05-14T17:40:16.855Z,21.80
2023-05-14T17:42:43.760Z,21.70
2023-05-14T17:45:10.577Z,21.70
2023-05-14T17:47:37.382Z,21.60
2023-05-14T17:50:04.594Z,21.50
2023-05-14T17:52:31.476Z,21.50
2023-05-14T17:54:57.940Z,21.40
2023-05-14T17:57:24.439Z,21.30
2023-05-14T17:59:51.123Z,21.30
2023-05-14T18:02:17.583Z,21.20
2023-05-14T18:04:45.420Z,21.10
2023-05-14T18:07:12.054Z,21.10
2023-05-14T18:09:38.869Z,21.00
2023-05-14T18:12:05.702Z,21.00
2023-05-14T18:14:32.467Z,20.90
2023-05-14T18:16:58.977Z,20.80
2023-05-14T18:19:25.826Z,20.80
2023-05-14T18:21:52.612Z,20.70
2023-05-14T18:24:19.407Z,20.60
2023-05-14T18:26:45.894Z,20.50
2023-05-14T18:29:12.351Z,20.40
2023-05-14T18:31:38.828Z,20.40
2023-05-14T18:34:05.700Z,20.30
2023-05-14T18:36:32.909Z,20.20
2023-05-14T18:38:59.353Z,20.20
2023-05-14T18:41:25.801Z,20.00
2023-05-14T18:43:52.458Z,19.90
2023-05-14T18:46:19.020Z,19.90
2023-05-14T18:48:46.092Z,19.80
2023-05-14T18:51:12.600Z,19.70
2023-05-14T18:53:39.419Z,19.70
2023-05-14T18:56:05.897Z,19.60
2023-05-14T18:58:32.365Z,19.50
2023-05-14T19:00:58.809Z,19.50
2023-05-14T19:03:25.613Z,19.40
2023-05-14T19:05:53.203Z,19.30
2023-05-14T19:08:19.701Z,19.30
2023-05-14T19:10:46.530Z,19.20
2023-05-14T19:13:13.335Z,19.10
2023-05-14T19:15:40.204Z,19.10
2023-05-14T19:18:06.788Z,19.00
2023-05-14T19:20:33.607Z,19.00
2023-05-14T19:23:00.077Z,18.90
2023-05-14T19:25:27.003Z,18.80
2023-05-14T19:27:53.747Z,18.80
2023-05-14T19:30:20.891Z,18.70
2023-05-14T19:32:47.746Z,18.70
2023-05-14T19:35:14.294Z,18.60
2023-05-14T19:37:41.190Z,18.60
2023-05-14T19:40:08.212Z,18.50
2023-05-14T19:42:34.649Z,18.50
2023-05-14T19:45:01.474Z,18.50
2023-05-14T19:47:28.016Z,18.40
2023-05-14T19:49:54.805Z,18.40
2023-05-14T19:52:21.270Z,18.30
2023-05-14T19:54:48.065Z,18.30
2023-05-14T19:57:14.839Z,18.30
2023-05-14T19:59:41.278Z,18.20
2023-05-14T20:02:08.223Z,18.20
2023-05-14T20:04:34.702Z,18.10
2023-05-14T20:07:01.522Z,18.10
2023-05-14T20:09:28.004Z,18.00
2023-05-14T20:11:54.616Z,18.00
2023-05-14T20:14:21.092Z,18.00
2023-05-14T20:16:47.927Z,17.90
2023-05-14T20:19:14.516Z,17.90
2023-05-14T20:21:41.270Z,17.90
2023-05-14T20:24:07.800Z,17.80
2023-05-14T20:26:35.106Z,17.80
2023-05-14T20:29:01.551Z,17.70
2023-05-14T20:31:28.029Z,17.70
2023-05-14T20:33:54.893Z,17.60
2023-05-14T20:36:21.391Z,17.60
2023-05-14T20:38:48.236Z,17.60
2023-05-14T20:41:14.699Z,17.60
2023-05-14T20:43:41.546Z,17.60
2023-05-14T20:46:08.060Z,17.50
2023-05-14T20:48:35.235Z,17.50
2023-05-14T20:51:02.002Z,17.40
2023-05-14T20:53:28.484Z,17.40
2023-05-14T20:55:55.280Z,17.40
2023-05-14T20:58:21.719Z,17.30
2023-05-14T21:00:48.426Z,17.30
2023-05-14T21:03:15.121Z,17.20
2023-05-14T21:05:42.185Z,17.20
2023-05-14T21:08:08.702Z,17.10
2023-05-14T21:10:35.614Z,17.10
2023-05-14T21:13:02.089Z,17.10
2023-05-14T21:15:28.994Z,17.00
2023-05-14T21:17:55.889Z,17.00
2023-05-14T21:20:22.392Z,16.90
2023-05-14T21:22:49.119Z,16.80
2023-05-14T21:25:15.662Z,16.80
2023-05-14T21:27:42.138Z,16.80
2023-05-14T21:30:09.140Z,16.70
2023-05-14T21:32:35.825Z,16.70
2023-05-14T21:35:02.671Z,16.70
2023-05-14T21:37:29.189Z,16.70
2023-05-14T21:39:55.639Z,16.60
2023-05-14T21:42:22.104Z,16.60
2023-05-14T21:44:48.997Z,16.60
2023-05-14T21:47:16.193Z,16.60
2023-05-14T21:49:42.960Z,16.50
2023-05-14T21:52:09.509Z,16.40
2023-05-14T21:54:36.138Z,16.40
2023-05-14T21:57:03.081Z,16.40
2023-05-14T21:59:29.547Z,16.20
2023-05-14T22:02:07.013Z,16.20
2023-05-14T22:04:34.424Z,16.20
2023-05-14T22:07:01.339Z,16.10
2023-05-14T22:09:27.772Z,16.00
2023-05-14T22:11:54.406Z,16.00
2023-05-14T22:14:21.249Z,15.90
2023-05-14T22:16:47.757Z,15.90
2023-05-14T22:19:16.653Z,15.80
2023-05-14T22:21:43.243Z,15.70
2023-05-14T22:24:10.083Z,15.70
2023-05-14T22:26:36.738Z,15.70
2023-05-14T22:29:03.191Z,15.70
2023-05-14T22:31:30.149Z,15.60
2023-05-14T22:33:56.995Z,15.60
2023-05-14T22:36:23.859Z,15.50
2023-05-14T22:38:50.321Z,15.50
2023-05-14T22:41:17.166Z,15.40
2023-05-14T22:43:43.634Z,15.40
2023-05-14T22:46:10.673Z,15.30
2023-05-14T22:48:37.228Z,15.30
2023-05-14T22:51:04.130Z,15.20
2023-05-14T22:53:30.593Z,15.10
2023-05-14T22:55:57.239Z,15.00
2023-05-14T22:58:24.146Z,15.00
2023-05-14T23:00:50.620Z,14.90
2023-05-14T23:03:17.353Z,14.90
2023-05-14T23:05:43.800Z,14.80
2023-05-14T23:08:11.216Z,14.80
2023-05-14T23:10:38.072Z,14.70
2023-05-14T23:13:04.530Z,14.70
2023-05-14T23:15:31.490Z,14.60
2023-05-14T23:17:58.164Z,14.50
2023-05-14T23:20:24.960Z,14.50
2023-05-14T23:22:51.509Z,14.40
2023-05-14T23:25:18.460Z,14.40
2023-05-14T23:27:44.937Z,14.30
2023-05-14T23:30:11.987Z,14.30
2023-05-14T23:32:38.851Z,14.30
2023-05-14T23:35:05.545Z,14.20
2023-05-14T23:37:32.432Z,14.20
2023-05-14T23:39:58.911Z,14.10
2023-05-14T23:42:25.749Z,14.10
2023-05-14T23:44:52.238Z,14.10
2023-05-14T23:47:19.218Z,14.10
2023-05-14T23:49:46.087Z,14.10
2023-05-14T23:52:12.538Z,14.10
2023-05-14T23:54:39.290Z,14.00
2023-05-14T23:57:06.070Z,14.00
2023-05-14T23:59:32.948Z,14.00
